LTAY/DNZ METAR and TAF weather

Enter ICAO airport designator
Station Type Date Time Source
LTAY METAR 2019/04/25 17:50 UTC NOAA

LTAY 251750Z 29006KT CAVOK 17/08 Q1023


Station Type Date Time Source
LTAY Decoded METAR 2019/04/25 17:50 UTC NOAA

Cardak, Turkey (LTAY) 37-47N 029-42E
Apr 25, 2019 - 01:50 PM EDT / 2019.04.25 1750 UTC
Wind: from the WNW (290 degrees) at 7 MPH (6 KT):0
Visibility: greater than 7 mile(s):0
Temperature: 62 F (17 C)
Dew Point: 46 F (8 C)
Relative Humidity: 55%
Pressure (altimeter): 30.21 in. Hg (1023 hPa)
ob: LTAY 251750Z 29006KT CAVOK 17/08 Q1023
cycle: 18

Station Type Date Time Source
LTAY TAF UTC NOAA

Error!

Example: see airport list